Relevés horaires Matro (Suisse)


Relevés horaires à Matro - Mardi 27 Janv. 2015
Heure UTC1 Température [°C] Vent [km/h] Hum. [%] Pres.4 [hPa] Visi. [Km] Nébu. [octa] Préc.5 [mm] Cond.
2m. Res. Ros. Dir.2 Vit. Moy. Raf.3
23:00 -10.2 -21.5 -16.2 NO 44.4 44.4 61.1 61 850(-0.1/3h) -- -- -- --
22:00 -10.5 -21.3 -15.1 NNO 38.9 42.6 61.1 69 850(0.6/3h) -- -- -- --
21:00 -10.5 -21.7 -16.0 NO 42.6 53.7 77.8 64 850(1.0/3h) -- -- -- --
20:00 -10.4 -22.1 -16.5 NNO 48.2 48.2 72.2 61 850(1.2/3h) -- -- -- --
19:00 -10.1 -21.6 -17.1 NNO 46.3 50.0 70.4 56 850(1.1/3h) -- -- -- --
18:00 -10.1 -21.6 -16.7 NO 46.3 53.7 83.3 58 850(0.6/3h) -- -- -- --
17:00 -9.5 -21.1 -18.1 NO 50.0 53.7 83.3 49 850(0.1/3h) -- -- -- --
16:00 -9.1 -20.4 -19.2 NNO 48.2 50.0 83.3 44 850(-0.3/3h) -- -- -- --
15:00 -8.6 -19.9 -19.4 NO 50.0 53.7 81.5 41 850(-0.5/3h) -- -- -- --
14:00 -8.4 -19.6 -19.6 NO 50.0 50.0 75.9 40 850(-0.5/3h) -- -- -- --
13:00 -7.9 -19.2 -18.9 NO 53.7 53.7 77.8 41 850(-0.3/3h) -- -- -- --
12:00 -7.5 -17.7 -17.3 NNO 42.6 53.7 81.5 45 850(0.0/3h) -- -- -- --
11:00 -7.4 -17.6 -16.4 NO 42.6 46.3 70.4 48 850(0.1/3h) -- -- -- --
10:00 -7.4 -17.7 -14.9 NNO 44.4 50.0 81.5 55 850(0.5/3h) -- -- -- --
09:00 -7.0 -17.5 -15.7 NNO 48.2 53.7 81.5 50 850(0.5/3h) -- -- -- --
08:00 -6.8 -16.2 -13.6 NNO 37.0 46.3 79.6 58 850(0.4/3h) -- -- -- --
07:00 -6.7 -15.6 -12.3 NO 33.3 37.0 68.5 64 850(-0.4/3h) -- -- -- --
06:00 -6.0 -14.3 -10.9 NO 29.6 37.0 57.4 68 850(-1.0/3h) -- -- -- --
05:00 -5.3 -14.2 -10.6 NO 37.0 37.0 57.4 66 850(-1.6/3h) -- -- -- --
04:00 -4.9 -12.3 -8.7 NO 25.9 29.6 40.7 75 850(-1.3/3h) -- -- -- --
03:00 -4.4 -11.7 -8.2 NO 25.9 31.5 44.4 75 850(-1.3/3h) -- -- -- --
02:00 -4.2 -11.2 -7.5 NO 24.1 29.6 42.6 78 850(-0.9/3h) -- -- -- --
01:00 -3.9 -11 -7.2 NO 25.9 31.5 44.4 78 850(-0.8/3h) -- -- -- --
00:00 -4.6 -10.8 -7.0 NO 18.5 29.6 38.9 83 850(-0.4/3h) -- -- -- --

1 Coordinated Universal Time. Actuellement il est 14:00 locale et 12:00 UTC.

2 Le vent souffle depuis la direction indiquée vers la direction oposée.

3 Les rafales max. sont disponible 40 min après l'heure du relevé.

4 Pour les stations d'altitude (plus de 600m) le géopotentiel du niveau le plus proche de la pression obligatoire est indiqué.

5 Les stations disposant d'un diffuseur peuvent indiquer "trace". Cela signifie que des précipitations ont touchés le sol mais que la quantité est inférieure à 0.1 mm.

Copyright

Les données affichées sur cette page sont la propriété exclusive de Météo Suisse.

Récapitulatif de la journée
Température [°C] Vent [km/h] Ensoleillement4 [h] Precipitations totale5 [mm] Pression [Hpa]
Min1 Max.2 Moy.3 Max. Min Max.
-7.0 -6.0 44.4 83.3 6 h 12 min 0 850.0 850.0

1 Température minimale relevée entre 18:00 UTC la veille et 18:00 UTC le jour donné.

2 Température maximale relevée entre 06:00 UTC le jour donné et 06:00 UTC le lendemain.

3 Vent moyen de la journée basé sur les relevés horaires.

4 Ensoleillement en heures relevé entre 06:00 UTC la veille et 06:00 UTC le jour donné.

5 Précipitations totales tombées entre 06:00 UTC la jour donné et 06:00 UTC le lendemain.

Graphiques horaires